createdAt,value
2023-03-04T00:01:06.911Z,24.58
2023-03-04T00:03:40.034Z,21.67
2023-03-04T00:06:13.028Z,21.30
2023-03-04T00:08:45.925Z,21.63
2023-03-04T00:11:18.777Z,20.67
2023-03-04T00:13:53.245Z,26.05
2023-03-04T00:16:27.428Z,21.35
2023-03-04T00:19:01.007Z,18.75
2023-03-04T00:21:34.130Z,19.02
2023-03-04T00:24:08.019Z,20.65
2023-03-04T00:26:48.074Z,20.30
2023-03-04T00:29:23.003Z,18.67
2023-03-04T00:31:56.101Z,17.23
2023-03-04T00:34:30.741Z,20.67
2023-03-04T00:37:05.572Z,12.77
2023-03-04T00:39:38.588Z,17.63
2023-03-04T00:42:11.421Z,18.95
2023-03-04T00:44:46.412Z,20.75
2023-03-04T00:47:19.643Z,25.45
2023-03-04T00:49:53.031Z,24.48
2023-03-04T00:52:25.890Z,24.92
2023-03-04T00:54:58.765Z,23.98
2023-03-04T00:57:31.642Z,25.30
2023-03-04T01:00:07.840Z,25.23
2023-03-04T01:02:41.167Z,19.80
2023-03-04T01:05:14.258Z,19.27
2023-03-04T01:07:47.200Z,20.45
2023-03-04T01:10:20.540Z,24.02
2023-03-04T01:12:53.705Z,21.02
2023-03-04T01:15:28.252Z,19.42
2023-03-04T01:18:01.659Z,22.45
2023-03-04T01:20:34.637Z,17.42
2023-03-04T01:23:09.001Z,21.67
2023-03-04T01:25:41.837Z,19.05
2023-03-04T01:28:14.864Z,18.00
2023-03-04T01:30:49.174Z,19.02
2023-03-04T01:33:23.125Z,19.75
2023-03-04T01:35:55.974Z,31.48
2023-03-04T01:38:29.184Z,32.10
2023-03-04T01:41:02.469Z,32.97
2023-03-04T01:43:37.858Z,29.58
2023-03-04T01:46:15.167Z,31.70
2023-03-04T01:48:48.707Z,28.70
2023-03-04T01:51:22.856Z,26.00
2023-03-04T01:53:56.140Z,35.40
2023-03-04T01:56:31.376Z,41.83
2023-03-04T01:59:12.876Z,35.88
2023-03-04T02:01:50.404Z,40.05
2023-03-04T02:04:26.164Z,32.95
2023-03-04T02:07:00.556Z,27.40
2023-03-04T02:09:35.784Z,23.05
2023-03-04T02:12:08.668Z,19.77
2023-03-04T02:14:41.624Z,17.70
2023-03-04T02:17:16.952Z,20.10
2023-03-04T02:19:57.734Z,14.80
2023-03-04T02:22:30.762Z,17.80
2023-03-04T02:25:09.197Z,17.02
2023-03-04T02:27:43.735Z,15.55
2023-03-04T02:30:18.474Z,16.92
2023-03-04T02:32:51.333Z,14.90
2023-03-04T02:35:24.655Z,17.58
2023-03-04T02:37:57.592Z,16.23
2023-03-04T02:40:34.472Z,23.90
2023-03-04T02:43:11.349Z,22.73
2023-03-04T02:45:46.618Z,20.70
2023-03-04T02:48:21.944Z,26.38
2023-03-04T02:50:55.578Z,25.80
2023-03-04T02:53:28.840Z,19.83
2023-03-04T02:56:01.793Z,16.88
2023-03-04T02:58:41.508Z,16.23
2023-03-04T03:01:16.341Z,14.57
2023-03-04T03:03:50.336Z,18.95
2023-03-04T03:06:23.159Z,15.48
2023-03-04T03:08:56.288Z,17.77
2023-03-04T03:11:29.470Z,17.23
2023-03-04T03:14:03.756Z,16.73
2023-03-04T03:16:37.144Z,16.85
2023-03-04T03:19:11.567Z,15.25
2023-03-04T03:21:45.110Z,20.02
2023-03-04T03:24:18.167Z,14.93
2023-03-04T03:26:50.994Z,21.50
2023-03-04T03:29:25.240Z,25.58
2023-03-04T03:31:58.118Z,26.33
2023-03-04T03:34:31.001Z,27.05
2023-03-04T03:37:03.976Z,28.13
2023-03-04T03:39:36.943Z,21.38
2023-03-04T03:42:10.035Z,24.23
2023-03-04T03:44:44.467Z,28.35
2023-03-04T03:47:17.728Z,26.25
2023-03-04T03:49:50.602Z,25.48
2023-03-04T03:52:23.577Z,24.50
2023-03-04T03:54:56.432Z,19.90
2023-03-04T03:57:29.696Z,23.35
2023-03-04T04:00:04.991Z,22.92
2023-03-04T04:02:45.304Z,25.08
2023-03-04T04:05:18.218Z,25.60
2023-03-04T04:07:53.739Z,26.10
2023-03-04T04:10:26.887Z,21.27
2023-03-04T04:12:59.826Z,21.67
2023-03-04T04:15:34.110Z,29.63
2023-03-04T04:18:07.394Z,18.00
2023-03-04T04:20:40.280Z,22.52
2023-03-04T04:23:13.209Z,24.85
2023-03-04T04:25:47.017Z,29.30
2023-03-04T04:28:19.779Z,24.23
2023-03-04T04:30:54.561Z,21.08
2023-03-04T04:33:28.179Z,21.90
2023-03-04T04:36:01.328Z,26.88
2023-03-04T04:38:34.521Z,24.60
2023-03-04T04:41:07.825Z,20.70
2023-03-04T04:43:40.694Z,24.00
2023-03-04T04:46:15.437Z,22.13
2023-03-04T04:48:48.573Z,20.60
2023-03-04T04:51:21.408Z,21.17
2023-03-04T04:53:54.285Z,23.63
2023-03-04T04:56:28.091Z,31.80
2023-03-04T04:59:02.635Z,27.80
2023-03-04T05:01:37.412Z,27.98
2023-03-04T05:04:10.357Z,29.15
2023-03-04T05:06:43.283Z,30.60
2023-03-04T05:09:16.281Z,30.20
2023-03-04T05:11:49.320Z,28.67
2023-03-04T05:14:22.452Z,24.00
2023-03-04T05:16:56.671Z,28.20
2023-03-04T05:19:29.727Z,28.40
2023-03-04T05:22:02.948Z,25.65
2023-03-04T05:24:35.838Z,25.40
2023-03-04T05:27:09.213Z,26.55
2023-03-04T05:29:45.032Z,29.67
2023-03-04T05:32:20.072Z,29.95
2023-03-04T05:34:53.143Z,29.88
2023-03-04T05:37:26.309Z,27.17
2023-03-04T05:39:59.203Z,27.67
2023-03-04T05:42:32.204Z,32.50
2023-03-04T05:45:05.760Z,23.67
2023-03-04T05:47:40.294Z,28.65
2023-03-04T05:50:13.682Z,26.60
2023-03-04T05:52:46.934Z,28.05
2023-03-04T05:55:20.049Z,29.02
2023-03-04T05:57:53.134Z,24.02
2023-03-04T06:00:27.243Z,29.80
2023-03-04T06:03:01.472Z,26.80
2023-03-04T06:05:34.315Z,27.70
2023-03-04T06:08:07.339Z,23.00
2023-03-04T06:10:41.883Z,26.02
2023-03-04T06:13:15.326Z,29.70
2023-03-04T06:15:48.623Z,29.73
2023-03-04T06:18:23.062Z,24.40
2023-03-04T06:20:58.861Z,27.27
2023-03-04T06:23:32.566Z,27.27
2023-03-04T06:26:09.311Z,24.08
2023-03-04T06:28:42.253Z,25.75
2023-03-04T06:31:15.264Z,27.48
2023-03-04T06:33:49.585Z,26.13
2023-03-04T06:36:22.765Z,25.27
2023-03-04T06:38:55.890Z,24.02
2023-03-04T06:41:29.077Z,27.75
2023-03-04T06:44:02.557Z,26.13
2023-03-04T06:46:36.107Z,23.17
2023-03-04T06:49:10.552Z,25.00
2023-03-04T06:51:43.755Z,29.15
2023-03-04T06:54:16.699Z,27.58
2023-03-04T06:56:49.653Z,25.30
2023-03-04T06:59:22.513Z,25.00
2023-03-04T07:01:55.804Z,27.58
2023-03-04T07:04:30.101Z,28.55
2023-03-04T07:07:02.915Z,26.88
2023-03-04T07:09:35.989Z,26.42
2023-03-04T07:12:10.300Z,27.70
2023-03-04T07:14:43.188Z,24.33
2023-03-04T07:17:16.213Z,23.63
2023-03-04T07:19:50.364Z,27.40
2023-03-04T07:22:23.182Z,28.63
2023-03-04T07:24:56.139Z,22.92
2023-03-04T07:27:28.964Z,24.58
2023-03-04T07:30:01.748Z,26.80
2023-03-04T07:32:35.963Z,29.48
2023-03-04T07:35:10.856Z,27.92
2023-03-04T07:37:43.739Z,22.67
2023-03-04T07:40:16.947Z,24.15
2023-03-04T07:42:51.314Z,26.70
2023-03-04T07:45:25.387Z,23.90
2023-03-04T07:48:01.150Z,27.08
2023-03-04T07:50:35.690Z,28.60
2023-03-04T07:53:08.831Z,27.75
2023-03-04T07:55:41.695Z,23.55
2023-03-04T07:58:14.657Z,26.75
2023-03-04T08:00:47.557Z,23.05
2023-03-04T08:03:20.432Z,26.02
2023-03-04T08:05:54.762Z,24.48
2023-03-04T08:08:27.590Z,25.30
2023-03-04T08:11:02.783Z,21.40
2023-03-04T08:13:36.482Z,22.23
2023-03-04T08:16:10.105Z,24.83
2023-03-04T08:18:43.833Z,20.73
2023-03-04T08:21:19.923Z,24.38
2023-03-04T08:23:53.622Z,23.90
2023-03-04T08:26:28.821Z,21.50
2023-03-04T08:29:03.410Z,21.27
2023-03-04T08:31:36.977Z,25.25
2023-03-04T08:34:11.550Z,21.65
2023-03-04T08:36:45.825Z,23.58
2023-03-04T08:39:19.762Z,23.48
2023-03-04T08:41:52.613Z,27.02
2023-03-04T08:44:26.796Z,22.65
2023-03-04T08:46:59.747Z,23.38
2023-03-04T08:49:32.567Z,25.23
2023-03-04T08:52:07.546Z,28.08
2023-03-04T08:54:40.511Z,20.02
2023-03-04T08:57:13.357Z,20.55
2023-03-04T08:59:46.192Z,23.10
2023-03-04T09:02:19.060Z,25.08
2023-03-04T09:04:51.777Z,25.73
2023-03-04T09:07:25.968Z,23.55
2023-03-04T09:09:58.877Z,17.77
2023-03-04T09:12:31.645Z,22.52
2023-03-04T09:15:11.602Z,23.80
2023-03-04T09:20:17.766Z,22.35
2023-03-04T09:22:52.292Z,18.85
2023-03-04T09:25:25.076Z,21.10
2023-03-04T09:27:58.076Z,22.45
2023-03-04T09:30:31.018Z,22.80
2023-03-04T09:33:03.862Z,22.15
2023-03-04T09:35:36.995Z,22.77
2023-03-04T09:38:11.642Z,22.08
2023-03-04T09:40:48.176Z,23.90
2023-03-04T09:43:27.552Z,20.77
2023-03-04T09:46:04.063Z,19.52
2023-03-04T09:48:44.807Z,21.55
2023-03-04T09:51:24.143Z,20.92
2023-03-04T09:54:08.383Z,20.65
2023-03-04T09:56:44.991Z,19.92
2023-03-04T09:59:25.809Z,21.33
2023-03-04T10:02:00.761Z,20.48
2023-03-04T10:04:40.669Z,22.20
2023-03-04T10:07:19.855Z,17.80
2023-03-04T10:10:01.281Z,20.20
2023-03-04T10:12:40.147Z,22.92
2023-03-04T10:15:24.470Z,22.52
2023-03-04T10:18:03.626Z,20.08
2023-03-04T10:20:48.661Z,19.27
2023-03-04T10:23:25.773Z,19.42
2023-03-04T10:26:02.376Z,26.40
2023-03-04T10:28:36.466Z,18.13
2023-03-04T10:31:17.121Z,19.60
2023-03-04T10:33:51.521Z,18.67
2023-03-04T10:36:37.876Z,19.30
2023-03-04T10:39:12.829Z,16.23
2023-03-04T10:41:56.180Z,24.90
2023-03-04T10:44:30.342Z,17.80
2023-03-04T10:47:03.322Z,19.90
2023-03-04T10:49:51.314Z,20.40
2023-03-04T10:52:32.438Z,20.83
2023-03-04T10:55:15.682Z,21.13
2023-03-04T10:57:53.433Z,17.77
2023-03-04T11:00:30.512Z,18.25
2023-03-04T11:03:29.352Z,19.15
2023-03-04T11:06:16.912Z,18.37
2023-03-04T11:08:56.724Z,15.90
2023-03-04T11:11:34.760Z,20.42
2023-03-04T11:14:19.826Z,18.80
2023-03-04T11:16:56.091Z,17.10
2023-03-04T11:19:36.487Z,17.92
2023-03-04T11:22:15.433Z,18.38
2023-03-04T11:24:57.335Z,22.02
2023-03-04T11:27:39.377Z,17.88
2023-03-04T11:30:28.126Z,22.77
2023-03-04T11:33:11.173Z,19.33
2023-03-04T11:35:53.121Z,19.67
2023-03-04T11:38:32.598Z,20.60
2023-03-04T11:41:12.148Z,22.33
2023-03-04T11:43:47.743Z,19.60
2023-03-04T11:46:56.029Z,23.88
2023-03-04T11:50:03.789Z,21.27
2023-03-04T11:52:53.550Z,23.50
2023-03-04T11:55:36.912Z,23.48
2023-03-04T11:58:35.157Z,16.42
2023-03-04T12:01:11.367Z,19.35
2023-03-04T12:04:18.391Z,21.55
2023-03-04T12:07:02.071Z,19.25
2023-03-04T12:09:48.085Z,16.30
2023-03-04T12:12:35.950Z,18.60
2023-03-04T12:15:18.685Z,23.05
2023-03-04T12:18:14.259Z,26.83
2023-03-04T12:21:16.959Z,19.98
2023-03-04T12:24:12.361Z,16.67
2023-03-04T12:26:52.046Z,20.63
2023-03-04T12:29:32.986Z,24.58
2023-03-04T12:32:14.502Z,24.27
2023-03-04T12:35:04.503Z,16.70
2023-03-04T12:37:58.559Z,19.23
2023-03-04T12:40:44.104Z,19.33
2023-03-04T12:43:36.291Z,18.17
2023-03-04T12:46:21.665Z,18.88
2023-03-04T12:49:09.050Z,22.15
2023-03-04T12:51:51.459Z,25.83
2023-03-04T12:54:33.007Z,15.98
2023-03-04T12:57:11.868Z,19.55
2023-03-04T12:59:53.613Z,21.05
2023-03-04T13:02:43.178Z,16.33
2023-03-04T13:05:40.636Z,24.43
2023-03-04T13:08:25.005Z,18.60
2023-03-04T13:11:04.902Z,18.05
2023-03-04T13:13:41.823Z,21.60
2023-03-04T13:16:33.701Z,16.10
2023-03-04T13:19:39.951Z,17.33
2023-03-04T13:22:44.003Z,21.13
2023-03-04T13:25:35.070Z,18.58
2023-03-04T13:28:27.543Z,50.80
2023-03-04T13:31:13.490Z,22.00
2023-03-04T13:34:01.179Z,23.65
2023-03-04T13:36:59.131Z,16.58
2023-03-04T13:39:36.818Z,30.13
2023-03-04T13:42:41.016Z,20.38
2023-03-04T13:45:34.230Z,16.33
2023-03-04T13:48:24.338Z,18.17
2023-03-04T13:50:57.842Z,26.75
2023-03-04T13:53:54.782Z,21.02
2023-03-04T13:56:36.994Z,16.17
2023-03-04T13:59:22.173Z,14.15
2023-03-04T14:02:17.121Z,18.70
2023-03-04T14:04:59.863Z,21.90
2023-03-04T14:07:35.081Z,17.88
2023-03-04T14:10:23.271Z,19.98
2023-03-04T14:12:59.198Z,23.15
2023-03-04T14:15:35.358Z,17.77
2023-03-04T14:18:12.934Z,23.55
2023-03-04T14:20:50.538Z,18.95
2023-03-04T14:23:29.258Z,23.52
2023-03-04T14:26:06.736Z,33.75
2023-03-04T14:28:48.134Z,30.58
2023-03-04T14:31:24.975Z,19.50
2023-03-04T14:34:02.791Z,22.00
2023-03-04T14:36:38.892Z,15.02
2023-03-04T14:39:18.191Z,18.95
2023-03-04T14:41:52.683Z,13.90
2023-03-04T14:44:36.033Z,22.73
2023-03-04T14:47:19.732Z,17.08
2023-03-04T14:49:54.204Z,19.58
2023-03-04T14:52:32.803Z,22.30
2023-03-04T14:55:25.108Z,16.13
2023-03-04T14:58:08.400Z,27.33
2023-03-04T15:00:42.082Z,14.57
2023-03-04T15:03:22.144Z,21.52
2023-03-04T15:05:58.448Z,14.93
2023-03-04T15:08:36.540Z,16.90
2023-03-04T15:11:15.073Z,22.00
2023-03-04T15:13:50.493Z,21.38
2023-03-04T15:16:25.870Z,25.38
2023-03-04T15:19:03.290Z,17.67
2023-03-04T15:21:40.223Z,15.90
2023-03-04T15:24:15.471Z,12.90
2023-03-04T15:26:50.839Z,17.85
2023-03-04T15:29:23.990Z,13.75
2023-03-04T15:31:57.256Z,29.58
2023-03-04T15:34:30.316Z,19.33
2023-03-04T15:37:04.715Z,12.75
2023-03-04T15:39:37.887Z,21.33
2023-03-04T15:42:13.640Z,23.15
2023-03-04T15:44:46.967Z,22.67
2023-03-04T15:47:19.933Z,30.85
2023-03-04T15:49:53.551Z,28.00
2023-03-04T15:52:27.700Z,16.55
2023-03-04T15:55:00.598Z,29.13
2023-03-04T15:57:34.296Z,18.80
2023-03-04T16:00:09.059Z,26.60
2023-03-04T16:02:44.581Z,33.05
2023-03-04T16:05:17.976Z,17.20
2023-03-04T16:07:53.459Z,29.20
2023-03-04T16:10:29.781Z,21.48
2023-03-04T16:13:02.650Z,21.02
2023-03-04T16:15:35.581Z,27.17
2023-03-04T16:18:10.917Z,16.15
2023-03-04T16:20:54.344Z,18.88
2023-03-04T16:23:28.865Z,16.55
2023-03-04T16:26:01.792Z,28.85
2023-03-04T16:28:34.751Z,24.05
2023-03-04T16:31:08.106Z,21.40
2023-03-04T16:33:41.195Z,26.10
2023-03-04T16:36:16.973Z,25.98
2023-03-04T16:38:52.660Z,22.15
2023-03-04T16:41:28.522Z,24.90
2023-03-04T16:44:02.329Z,28.75
2023-03-04T16:46:35.666Z,21.10
2023-03-04T16:49:08.737Z,18.05
2023-03-04T16:51:44.609Z,21.98
2023-03-04T16:54:23.905Z,28.17
2023-03-04T16:56:57.208Z,16.00
2023-03-04T16:59:30.707Z,27.13
2023-03-04T17:02:03.852Z,19.73
2023-03-04T17:04:36.788Z,17.58
2023-03-04T17:07:09.634Z,20.48
2023-03-04T17:09:44.121Z,21.35
2023-03-04T17:12:16.992Z,23.15
2023-03-04T17:14:49.850Z,21.45
2023-03-04T17:17:32.956Z,22.17
2023-03-04T17:20:07.015Z,15.65
2023-03-04T17:22:39.880Z,25.10
2023-03-04T17:25:15.221Z,25.00
2023-03-04T17:27:48.248Z,20.35
2023-03-04T17:30:21.041Z,22.00
2023-03-04T17:32:53.960Z,19.17
2023-03-04T17:35:26.929Z,21.05
2023-03-04T17:38:00.123Z,18.95
2023-03-04T17:40:34.629Z,23.92
2023-03-04T17:43:11.424Z,21.70
2023-03-04T17:45:45.436Z,17.17
2023-03-04T17:48:18.434Z,23.98
2023-03-04T17:50:51.875Z,20.15
2023-03-04T17:53:24.693Z,23.17
2023-03-04T17:56:01.680Z,19.35
2023-03-04T17:58:36.872Z,21.65
2023-03-04T18:01:17.687Z,24.67
2023-03-04T18:03:51.622Z,24.52
2023-03-04T18:06:25.344Z,19.65
2023-03-04T18:08:58.415Z,21.33
2023-03-04T18:11:34.635Z,17.33
2023-03-04T18:14:07.839Z,23.08
2023-03-04T18:16:40.867Z,22.55
2023-03-04T18:19:13.781Z,19.63
2023-03-04T18:21:46.874Z,17.25
2023-03-04T18:24:19.673Z,23.58
2023-03-04T18:26:54.590Z,20.27
2023-03-04T18:29:28.492Z,23.10
2023-03-04T18:32:02.081Z,20.77
2023-03-04T18:34:35.030Z,21.10
2023-03-04T18:37:08.016Z,17.10
2023-03-04T18:39:40.926Z,19.30
2023-03-04T18:42:15.508Z,22.20
2023-03-04T18:44:48.477Z,23.23
2023-03-04T18:47:22.586Z,20.95
2023-03-04T18:49:55.446Z,16.63
2023-03-04T18:52:28.401Z,20.60
2023-03-04T18:55:01.258Z,17.08
2023-03-04T18:57:35.804Z,22.70
2023-03-04T19:00:10.644Z,17.33
2023-03-04T19:02:48.014Z,23.85
2023-03-04T19:05:26.666Z,24.85
2023-03-04T19:08:00.741Z,19.25
2023-03-04T19:10:34.135Z,25.27
2023-03-04T19:13:10.191Z,22.63
2023-03-04T19:15:44.217Z,19.38
2023-03-04T19:18:18.349Z,30.83
2023-03-04T19:20:52.363Z,21.77
2023-03-04T19:23:27.394Z,22.77
2023-03-04T19:26:01.156Z,25.40
2023-03-04T19:28:36.690Z,29.10
2023-03-04T19:31:11.379Z,26.33
2023-03-04T19:33:44.341Z,22.45
2023-03-04T19:36:17.772Z,37.00
2023-03-04T19:38:51.044Z,26.88
2023-03-04T19:41:24.569Z,20.70
2023-03-04T19:43:59.776Z,23.02
2023-03-04T19:46:32.918Z,25.05
2023-03-04T19:49:06.051Z,25.17
2023-03-04T19:51:39.147Z,28.65
2023-03-04T19:54:12.119Z,22.13
2023-03-04T19:56:45.074Z,26.90
2023-03-04T19:59:19.364Z,23.98
2023-03-04T20:01:52.265Z,26.60
2023-03-04T20:04:25.438Z,27.02
2023-03-04T20:06:58.495Z,35.03
2023-03-04T20:09:31.313Z,23.75
2023-03-04T20:12:04.440Z,19.90
2023-03-04T20:14:39.341Z,19.50
2023-03-04T20:17:12.365Z,26.23
2023-03-04T20:19:46.151Z,26.08
2023-03-04T20:22:19.149Z,28.20
2023-03-04T20:24:53.852Z,24.35
2023-03-04T20:27:26.746Z,26.75
2023-03-04T20:30:03.653Z,24.88
2023-03-04T20:32:36.968Z,26.00
2023-03-04T20:35:14.074Z,27.55
2023-03-04T20:37:47.445Z,41.08
2023-03-04T20:40:20.544Z,36.65
2023-03-04T20:42:53.429Z,28.00
2023-03-04T20:45:27.666Z,26.73
2023-03-04T20:48:00.734Z,26.58
2023-03-04T20:50:33.522Z,22.05
2023-03-04T20:53:06.675Z,27.20
2023-03-04T20:55:39.509Z,25.00
2023-03-04T20:58:12.504Z,25.30
2023-03-04T21:00:48.544Z,28.00
2023-03-04T21:03:21.482Z,29.58
2023-03-04T21:05:54.285Z,25.00
2023-03-04T21:08:27.065Z,28.88
2023-03-04T21:10:59.988Z,29.10
2023-03-04T21:13:33.099Z,27.98
2023-03-04T21:16:13.162Z,28.90
2023-03-04T21:18:46.181Z,28.05
2023-03-04T21:21:22.181Z,27.02
2023-03-04T21:23:57.097Z,30.10
2023-03-04T21:26:31.173Z,34.97
2023-03-04T21:29:04.477Z,30.90
2023-03-04T21:31:42.547Z,30.60
2023-03-04T21:34:18.576Z,23.98
2023-03-04T21:36:52.370Z,28.92
2023-03-04T21:39:26.155Z,28.10
2023-03-04T21:42:00.442Z,33.28
2023-03-04T21:44:48.685Z,34.30
2023-03-04T21:47:23.963Z,32.67
2023-03-04T21:49:56.792Z,33.17
2023-03-04T21:52:30.024Z,33.08
2023-03-04T21:55:02.958Z,41.45
2023-03-04T21:57:35.738Z,31.42
2023-03-04T22:00:10.598Z,32.63
2023-03-04T22:02:48.050Z,31.55
2023-03-04T22:05:20.804Z,36.33
2023-03-04T22:07:53.733Z,33.88
2023-03-04T22:10:26.669Z,33.28
2023-03-04T22:13:00.407Z,34.00
2023-03-04T22:15:33.369Z,36.88
2023-03-04T22:18:10.182Z,37.55
2023-03-04T22:20:45.233Z,33.58
2023-03-04T22:23:20.147Z,31.77
2023-03-04T22:25:53.013Z,36.85
2023-03-04T22:28:28.442Z,39.58
2023-03-04T22:31:01.995Z,37.80
2023-03-04T22:33:37.299Z,43.50
2023-03-04T22:36:10.749Z,36.65
2023-03-04T22:38:44.774Z,41.30
2023-03-04T22:41:19.028Z,39.42
2023-03-04T22:43:52.386Z,40.58
2023-03-04T22:46:28.222Z,39.92
2023-03-04T22:49:05.453Z,35.65
2023-03-04T22:51:41.214Z,37.90
2023-03-04T22:54:15.230Z,43.60
2023-03-04T22:56:48.286Z,38.75
2023-03-04T22:59:21.379Z,38.92
2023-03-04T23:01:54.287Z,37.15
2023-03-04T23:04:28.701Z,38.30
2023-03-04T23:07:01.690Z,32.05
2023-03-04T23:09:34.984Z,43.50
2023-03-04T23:12:09.072Z,35.22
2023-03-04T23:14:44.888Z,40.60
2023-03-04T23:17:17.929Z,41.25
2023-03-04T23:19:52.275Z,35.38
2023-03-04T23:22:25.152Z,37.88
2023-03-04T23:24:58.907Z,39.70
2023-03-04T23:27:31.836Z,38.50
2023-03-04T23:30:06.041Z,34.10
2023-03-04T23:32:39.048Z,34.53
2023-03-04T23:35:13.616Z,34.75
2023-03-04T23:37:46.574Z,36.88
2023-03-04T23:40:20.151Z,37.83
2023-03-04T23:42:52.977Z,36.10
2023-03-04T23:45:25.850Z,37.70
2023-03-04T23:47:58.676Z,38.05
2023-03-04T23:50:34.158Z,43.38
2023-03-04T23:53:06.976Z,46.55
2023-03-04T23:55:42.428Z,40.97
2023-03-04T23:58:15.754Z,42.20
